Time;durP1;ratioP1;P1;durP2;ratioP2;P2;SDS_P1;SDS_P2;PMS_P1;PMS_P2;Temp;Humidity;BMP_temperature;BMP_pressure;BME280_temperature;BME280_humidity;BME280_pressure;Samples;Min_cycle;Max_cycle;Signal;HPM_P1;HPM_P2
2021/10/24 00:01:48;;;;;;;;;22.33;15.00;;;;;4.22;79.38;100979.19;6280814;20;3557510;-46
2021/10/24 00:04:17;;;;;;;;;24.67;17.67;;;;;4.40;78.94;100975.38;6311085;20;3573151;-45
2021/10/24 00:06:45;;;;;;;;;24.67;17.33;;;;;4.57;78.46;100970.66;6312377;20;3563797;-45
2021/10/24 00:09:13;;;;;;;;;12.00;7.00;;;;;4.73;77.14;100976.59;6310472;20;2769139;-45
2021/10/24 00:11:41;;;;;;;;;12.00;8.00;;;;;4.24;78.92;100982.72;6278246;20;2768019;-46
2021/10/24 00:14:09;;;;;;;;;12.00;10.00;;;;;4.66;77.95;100982.03;6280629;20;2776327;-46
2021/10/24 00:16:37;;;;;;;;;15.50;12.00;;;;;4.65;77.24;100982.97;6279155;20;2791911;-45
2021/10/24 00:19:06;;;;;;;;;8.50;8.50;;;;;4.88;76.21;100988.78;6298077;20;1812920;-45
2021/10/24 00:21:34;;;;;;;;;17.00;11.00;;;;;4.73;76.63;100979.25;6310278;20;2807542;-44
2021/10/24 00:24:04;;;;;;;;;13.00;11.40;;;;;4.25;79.12;100975.63;6307641;20;2789896;-46
2021/10/24 00:26:35;;;;;;;;;0.00;0.00;;;;;4.01;80.22;100983.03;6322606;20;2698355;-48
2021/10/24 00:29:03;;;;;;;;;21.00;17.00;;;;;3.87;80.60;100983.22;6285006;20;2832656;-45
2021/10/24 00:31:32;;;;;;;;;20.33;14.67;;;;;3.83;80.78;100977.97;6311226;20;2803589;-45
2021/10/24 00:34:00;;;;;;;;;11.00;9.00;;;;;3.80;81.50;100973.56;6316859;20;2751327;-45
2021/10/24 00:36:31;;;;;;;;;8.17;8.00;;;;;3.53;83.17;100974.81;6327509;20;1803600;-46
2021/10/24 00:39:00;;;;;;;;;14.50;8.50;;;;;3.44;83.49;100980.22;6304677;20;1820158;-45
2021/10/24 00:41:30;;;;;;;;;12.00;7.50;;;;;3.42;83.43;100976.69;6333465;20;1820346;-45
2021/10/24 00:44:23;;;;;;;;;13.50;9.00;;;;;3.79;81.79;100970.91;6315142;20;2769108;-46
2021/10/24 00:46:55;;;;;;;;;12.50;10.00;;;;;4.20;79.87;100972.13;6281972;20;2776332;-45
2021/10/24 00:49:24;;;;;;;;;12.50;9.00;;;;;4.25;79.13;100970.28;6283921;20;2756611;-47
2021/10/24 00:51:55;;;;;;;;;16.50;9.00;;;;;3.72;80.53;100971.00;6280994;20;2768020;-44
2021/10/24 00:54:26;;;;;;;;;9.75;9.75;;;;;3.54;82.19;100968.59;6302451;20;1809682;-45
2021/10/24 00:56:56;;;;;;;;;10.00;7.00;;;;;3.39;83.17;100966.09;6316287;20;2747144;-46
2021/10/24 00:59:26;;;;;;;;;9.50;9.50;;;;;3.23;84.07;100966.28;6330235;20;1829555;-46
2021/10/24 01:01:55;;;;;;;;;10.00;8.00;;;;;3.07;84.74;100964.69;6318220;20;2765891;-45
2021/10/24 01:04:24;;;;;;;;;6.75;6.00;;;;;3.19;84.92;100966.34;6302015;20;1819129;-44
2021/10/24 01:06:54;;;;;;;;;7.50;7.50;;;;;3.15;85.41;100965.47;6335601;20;1821188;-46
2021/10/24 01:09:24;;;;;;;;;14.25;8.00;;;;;2.97;86.07;100966.53;6331212;20;1820723;-45
2021/10/24 01:11:53;;;;;;;;;10.00;7.50;;;;;2.86;86.49;100960.47;6334413;20;1812805;-44
2021/10/24 01:14:21;;;;;;;;;7.00;6.00;;;;;2.84;86.29;100967.53;6318640;20;2748216;-45
2021/10/24 01:16:51;;;;;;;;;11.50;10.00;;;;;2.51;86.87;100966.97;6314411;20;2767981;-46
2021/10/24 01:19:21;;;;;;;;;10.00;8.50;;;;;2.56;86.81;100957.19;6282333;20;2763863;-45
2021/10/24 01:21:50;;;;;;;;;13.50;11.00;;;;;2.03;88.56;100961.13;6282635;20;2791952;-44
2021/10/24 01:24:17;;;;;;;;;11.50;11.50;;;;;2.53;87.14;100969.63;6281226;20;2793382;-44
2021/10/24 01:26:49;;;;;;;;;14.00;13.00;;;;;2.35;88.58;100963.56;6282615;20;2806502;-44
2021/10/24 01:29:17;;;;;;;;;16.00;9.50;;;;;2.18;88.62;100976.03;6282967;20;2784618;-44
2021/10/24 01:31:44;;;;;;;;;13.50;11.00;;;;;2.17;88.76;100980.44;6285235;20;2783608;-45
2021/10/24 01:34:16;;;;;;;;;18.57;12.43;;;;;2.09;89.56;100981.41;6321178;20;1818434;-44
2021/10/24 01:36:46;;;;;;;;;12.20;9.80;;;;;1.85;90.62;100983.28;6339213;20;2765234;-45
2021/10/24 01:39:15;;;;;;;;;12.00;11.00;;;;;1.81;90.52;100992.13;6311645;20;2791946;-45
2021/10/24 01:41:44;;;;;;;;;22.00;13.00;;;;;1.63;90.53;100997.50;6284260;20;3547086;-47
2021/10/24 01:44:15;;;;;;;;;13.00;11.00;;;;;0.59;91.77;100986.22;6313364;20;2796108;-46
2021/10/24 01:46:42;;;;;;;;;15.50;12.00;;;;;1.28;90.83;100988.78;6283503;20;2792081;-48
2021/10/24 01:49:11;;;;;;;;;14.67;13.33;;;;;1.52;90.05;100989.59;6282213;20;2804548;-44
2021/10/24 01:51:39;;;;;;;;;20.00;14.00;;;;;1.40;89.48;100995.81;6314907;20;2802398;-46
2021/10/24 01:54:07;;;;;;;;;16.67;14.67;;;;;1.36;91.32;100999.34;6283601;20;3533676;-44
2021/10/24 01:56:36;;;;;;;;;23.00;15.00;;;;;1.53;90.80;101005.47;6312384;20;3542929;-45
2021/10/24 01:59:05;;;;;;;;;17.67;16.00;;;;;1.50;91.44;101001.94;6309500;20;3558553;-45
2021/10/24 02:01:33;;;;;;;;;22.00;13.00;;;;;1.34;91.63;101006.41;6315565;20;2818170;-46
2021/10/24 02:04:03;;;;;;;;;15.00;15.00;;;;;1.29;92.45;101008.19;6303572;20;2816963;-45
2021/10/24 02:06:30;;;;;;;;;14.50;14.50;;;;;1.07;93.20;101012.63;6283882;20;2801326;-44
2021/10/24 02:09:01;;;;;;;;;12.00;12.00;;;;;1.58;93.75;101010.78;6307324;20;2798212;-44
2021/10/24 02:11:30;;;;;;;;;22.60;13.40;;;;;1.66;91.54;101008.06;6305266;20;2839866;-44
2021/10/24 02:13:58;;;;;;;;;17.00;11.00;;;;;1.37;92.58;101006.44;6282386;20;2799346;-47
2021/10/24 02:16:28;;;;;;;;;17.80;14.40;;;;;1.48;92.98;101017.84;6309135;20;2807645;-46
2021/10/24 02:18:57;;;;;;;;;14.20;10.00;;;;;1.40;92.90;101006.41;6306777;20;2789849;-46
2021/10/24 02:21:25;;;;;;;;;17.00;12.50;;;;;1.41;93.68;101002.00;6281519;20;2803397;-45
2021/10/24 02:23:53;;;;;;;;;11.50;11.00;;;;;1.45;93.63;101003.72;6282443;20;2773168;-45
2021/10/24 02:26:21;;;;;;;;;20.00;15.00;;;;;1.57;94.00;101005.47;6281295;20;2788119;-45
2021/10/24 02:28:49;;;;;;;;;17.50;13.00;;;;;1.45;93.64;101009.00;6282345;20;2797115;-46
2021/10/24 02:31:19;;;;;;;;;9.20;9.00;;;;;1.42;93.77;101002.00;6308298;20;2755538;-44
2021/10/24 02:33:46;;;;;;;;;15.50;15.00;;;;;1.28;94.27;101014.38;6314230;20;2806518;-46
2021/10/24 02:36:17;;;;;;;;;13.17;13.17;;;;;1.07;94.30;101008.22;6323589;20;1821024;-46
2021/10/24 02:38:45;;;;;;;;;16.00;12.00;;;;;1.12;95.14;101010.88;6283643;20;2793999;-46
2021/10/24 02:41:13;;;;;;;;;16.00;12.00;;;;;1.16;94.81;101006.44;6284671;20;2806584;-45
2021/10/24 02:43:40;;;;;;;;;11.00;6.33;;;;;0.63;95.78;101010.88;6283358;20;3476258;-44
2021/10/24 02:46:09;;;;;;;;;19.67;14.67;;;;;1.24;94.71;101013.50;6280796;20;3550305;-45
2021/10/24 02:48:37;;;;;;;;;15.50;12.00;;;;;1.13;93.38;101012.63;6313387;20;2804440;-45
2021/10/24 02:51:08;;;;;;;;;15.50;13.50;;;;;0.94;94.24;101019.69;6318931;20;1821098;-44
2021/10/24 02:53:36;;;;;;;;;24.00;17.67;;;;;1.17;94.83;101021.44;6282137;20;3575213;-45
2021/10/24 02:56:05;;;;;;;;;17.33;15.00;;;;;1.26;94.67;101029.34;6312989;20;3529391;-46
2021/10/24 02:58:34;;;;;;;;;23.67;19.00;;;;;1.38;93.52;101034.63;6311661;20;3564978;-44
2021/10/24 03:01:02;;;;;;;;;36.50;25.00;;;;;1.06;93.08;101034.69;6309487;20;2500319;-44
2021/10/24 03:03:30;;;;;;;;;32.00;28.00;;;;;0.47;95.04;101030.25;6281555;20;2500493;-46
2021/10/24 03:05:59;;;;;;;;;24.00;22.00;;;;;1.11;94.03;101030.28;6283400;20;3559721;-46
2021/10/24 03:08:27;;;;;;;;;24.00;19.00;;;;;0.90;94.22;101038.22;6276722;20;3551262;-45
2021/10/24 03:10:56;;;;;;;;;19.67;18.67;;;;;0.92;95.06;101029.38;6312660;20;3557568;-45
2021/10/24 03:13:25;;;;;;;;;21.33;16.00;;;;;1.03;95.79;101027.63;6312240;20;3566874;-44
2021/10/24 03:15:54;;;;;;;;;15.67;15.00;;;;;0.94;95.24;101026.75;6311418;20;3550261;-45
2021/10/24 03:18:26;;;;;;;;;12.43;12.00;;;;;1.31;93.99;101032.88;6351033;20;1815924;-45
2021/10/24 03:20:54;;;;;;;;;18.00;14.00;;;;;1.26;93.36;101029.34;6312561;20;2795144;-45
2021/10/24 03:23:21;;;;;;;;;13.00;13.00;;;;;0.76;94.30;101039.09;6279599;20;2788948;-44
2021/10/24 03:25:51;;;;;;;;;18.00;13.20;;;;;1.04;94.44;101039.97;6301222;20;2795170;-46
2021/10/24 03:28:19;;;;;;;;;13.00;13.00;;;;;0.49;95.45;101041.72;6281421;20;2811827;-45
2021/10/24 03:30:47;;;;;;;;;14.00;12.50;;;;;0.23;96.88;101045.19;6280938;20;2786842;-46
2021/10/24 03:33:18;;;;;;;;;19.00;13.33;;;;;-0.02;96.87;101054.81;6282580;20;3555498;-44
2021/10/24 03:35:47;;;;;;;;;16.33;13.67;;;;;0.03;97.54;101044.22;6312966;20;3549199;-44
2021/10/24 03:38:16;;;;;;;;;23.67;19.00;;;;;0.15;97.79;101061.00;6310294;20;3565852;-44
2021/10/24 03:40:44;;;;;;;;;30.00;26.00;;;;;-0.15;98.13;101058.28;6310860;20;2496086;-44
2021/10/24 03:43:13;;;;;;;;;33.00;22.67;;;;;0.09;97.69;101055.72;6281051;20;3586906;-44
2021/10/24 03:45:42;;;;;;;;;24.67;20.00;;;;;-0.20;97.71;101062.66;6308540;20;3559641;-44
2021/10/24 03:48:11;;;;;;;;;24.33;18.33;;;;;-0.11;97.73;101062.66;6310883;20;3559612;-44
2021/10/24 03:50:38;;;;;;;;;26.00;20.00;;;;;0.42;97.18;101065.50;6313153;20;2825269;-44
2021/10/24 03:53:07;;;;;;;;;25.00;17.00;;;;;0.61;94.61;101057.59;6280386;20;3567931;-44
2021/10/24 03:55:38;;;;;;;;;14.33;10.00;;;;;0.33;95.19;101068.09;6351953;20;1808576;-44
2021/10/24 03:58:07;;;;;;;;;54.00;39.67;;;;;0.84;96.01;101062.88;6284222;20;2879513;-47
2021/10/24 04:00:35;;;;;;;;;49.00;41.00;;;;;0.56;95.31;101078.72;6318200;20;2871069;-44
2021/10/24 04:03:05;;;;;;;;;33.50;30.50;;;;;0.33;96.04;101069.88;6283657;20;2500275;-45
2021/10/24 04:05:34;;;;;;;;;25.67;18.67;;;;;0.70;95.02;101064.66;6285437;20;3562841;-44
2021/10/24 04:08:04;;;;;;;;;50.50;42.00;;;;;1.36;94.11;101068.16;6316456;20;2868151;-45
2021/10/24 04:10:32;;;;;;;;;31.00;28.00;;;;;1.41;93.77;101070.78;6284507;20;2500297;-44
2021/10/24 04:13:00;;;;;;;;;38.00;27.50;;;;;1.26;94.09;101064.66;6281466;20;2500279;-45
2021/10/24 04:15:28;;;;;;;;;27.33;25.33;;;;;1.24;94.02;101071.69;6285544;20;3586735;-46
2021/10/24 04:17:57;;;;;;;;;36.50;29.50;;;;;0.91;94.75;101071.72;6282649;20;2500239;-44
2021/10/24 04:20:25;;;;;;;;;35.00;24.50;;;;;0.50;95.72;101072.53;6285303;20;2865860;-45
2021/10/24 04:22:54;;;;;;;;;12.67;12.67;;;;;-0.09;95.86;101071.47;6285067;20;2800388;-44
2021/10/24 04:25:25;;;;;;;;;22.00;17.00;;;;;0.01;96.95;101073.28;6316138;20;2821136;-45
2021/10/24 04:27:54;;;;;;;;;21.00;16.00;;;;;0.33;96.63;101069.88;6285659;20;2816940;-44
2021/10/24 04:30:23;;;;;;;;;20.67;15.67;;;;;0.05;95.06;101068.88;6285803;20;3552732;-44
2021/10/24 04:32:51;;;;;;;;;18.00;12.50;;;;;-0.23;95.26;101080.22;6317165;20;2798175;-45
2021/10/24 04:35:19;;;;;;;;;20.00;16.00;;;;;-0.39;96.71;101080.16;6284156;20;2831609;-45
2021/10/24 04:37:49;;;;;;;;;17.00;12.60;;;;;-0.47;97.53;101088.00;6309453;20;2796113;-44
2021/10/24 04:40:19;;;;;;;;;19.40;17.40;;;;;-0.68;97.85;101087.00;6310442;20;2820046;-44
2021/10/24 04:42:47;;;;;;;;;30.50;24.00;;;;;-0.68;98.33;101087.00;6286609;20;2853519;-45
2021/10/24 04:45:16;;;;;;;;;40.50;28.50;;;;;-0.90;98.87;101091.22;6285296;20;2868020;-44
2021/10/24 04:47:44;;;;;;;;;32.00;28.67;;;;;-0.87;98.94;101087.72;6280447;20;3576302;-44
2021/10/24 04:50:14;;;;;;;;;53.00;41.00;;;;;-0.93;98.47;101087.69;6285929;20;2859662;-46
2021/10/24 04:52:42;;;;;;;;;18.50;13.50;;;;;-1.01;99.06;101084.09;6284972;20;2800252;-45
2021/10/24 04:55:12;;;;;;;;;14.40;12.60;;;;;-0.89;98.88;101076.31;6308750;20;2793060;-45
2021/10/24 04:57:40;;;;;;;;;22.00;16.00;;;;;-0.71;97.75;101092.25;6280886;20;2819009;-45
2021/10/24 05:00:11;;;;;;;;;16.00;14.60;;;;;-1.06;98.43;101083.19;6310089;20;2809796;-46
2021/10/24 05:02:39;;;;;;;;;17.33;16.00;;;;;-0.87;98.89;101082.44;6286087;20;3555453;-46
2021/10/24 05:05:10;;;;;;;;;24.50;21.00;;;;;-0.82;97.76;101088.63;6316604;20;2827370;-45
2021/10/24 05:07:41;;;;;;;;;24.67;20.50;;;;;-1.12;98.13;101090.16;6304915;20;2839973;-45
2021/10/24 05:10:10;;;;;;;;;24.33;19.67;;;;;-0.57;98.06;101094.09;6312249;20;3551391;-46
2021/10/24 05:12:38;;;;;;;;;28.00;26.00;;;;;-0.95;98.02;101092.97;6311772;20;2500257;-45
2021/10/24 05:15:07;;;;;;;;;30.00;27.00;;;;;-0.86;98.80;101094.78;6279782;20;2500425;-46
2021/10/24 05:17:35;;;;;;;;;39.00;27.33;;;;;-1.06;99.07;101109.53;6281114;20;2874252;-46
2021/10/24 05:20:06;;;;;;;;;42.00;36.50;;;;;-0.85;99.22;101112.34;6316381;20;2865061;-46
2021/10/24 05:22:35;;;;;;;;;31.33;26.33;;;;;-0.88;99.18;101107.06;6284359;20;3582679;-48
2021/10/24 05:25:05;;;;;;;;;39.00;34.00;;;;;-0.46;98.12;101116.16;6313664;20;2862722;-45
2021/10/24 05:27:34;;;;;;;;;37.00;30.00;;;;;-0.67;98.28;101109.84;6277675;20;2500320;-44
2021/10/24 05:30:03;;;;;;;;;37.00;32.00;;;;;-0.79;98.10;101109.78;6283135;20;2847119;-47
2021/10/24 05:32:32;;;;;;;;;39.00;35.00;;;;;-0.82;98.37;101109.72;6279483;20;2508576;-45
2021/10/24 05:35:01;;;;;;;;;38.67;34.00;;;;;-0.38;98.52;101119.72;6284923;20;3584610;-45
2021/10/24 05:37:30;;;;;;;;;32.00;31.50;;;;;-0.42;98.14;101117.03;6284190;20;2849188;-45
2021/10/24 05:39:59;;;;;;;;;40.50;35.50;;;;;-0.33;98.11;101120.63;6284799;20;2867974;-45
2021/10/24 05:42:27;;;;;;;;;42.00;37.00;;;;;-0.59;98.37;101132.78;6284256;20;2867603;-45
2021/10/24 05:44:55;;;;;;;;;40.00;34.50;;;;;-0.61;98.42;101121.31;6281320;20;2502392;-47
2021/10/24 05:47:23;;;;;;;;;26.00;20.00;;;;;-0.85;98.57;101130.81;6285651;20;2820132;-46
2021/10/24 05:49:52;;;;;;;;;24.00;20.67;;;;;-0.65;98.54;101143.28;6282125;20;3555445;-45
2021/10/24 05:52:22;;;;;;;;;48.67;34.67;;;;;-0.89;97.98;101158.03;6311395;20;2888171;-47
2021/10/24 05:54:51;;;;;;;;;39.50;32.00;;;;;-0.81;97.36;101164.25;6313564;20;2852439;-45
2021/10/24 05:57:19;;;;;;;;;34.00;29.00;;;;;-0.81;97.02;101164.25;6281211;20;2500850;-47
2021/10/24 05:59:47;;;;;;;;;32.00;26.50;;;;;-0.43;95.77;101168.06;6285458;20;2856509;-45
2021/10/24 06:02:15;;;;;;;;;38.50;32.00;;;;;-0.76;95.68;101152.00;6284081;20;2500377;-45
2021/10/24 06:04:43;;;;;;;;;35.00;31.00;;;;;-0.37;96.36;101161.09;6283622;20;2500404;-47
2021/10/24 06:07:12;;;;;;;;;48.50;36.50;;;;;-0.29;96.05;101174.28;6283987;20;2887852;-45
2021/10/24 06:09:54;;;;;;;;;49.00;43.00;;;;;-0.18;95.32;101172.63;6286154;20;2851246;-45
2021/10/24 06:15:06;;;;;;;;;89.00;65.00;;;;;0.29;95.04;101174.66;6287172;20;2782622;-45
2021/10/24 06:17:36;;;;;;;;;65.00;43.33;;;;;0.64;94.58;101182.69;6282092;20;2878616;-45
2021/10/24 06:20:09;;;;;;;;;64.00;43.00;;;;;1.79;92.08;101192.50;6315625;20;3633737;-45
2021/10/24 06:22:38;;;;;;;;;60.00;45.00;;;;;1.94;86.79;101195.09;6313879;20;2487805;-47
2021/10/24 06:25:11;;;;;;;;;61.33;45.00;;;;;3.91;81.10;101209.91;6283932;20;3618317;-44
2021/10/24 06:27:44;;;;;;;;;47.33;35.67;;;;;2.38;82.49;101202.06;6314248;20;3630484;-45
2021/10/24 06:30:17;;;;;;;;;45.33;35.00;;;;;1.70;86.16;101216.31;6316335;20;3630410;-44
2021/10/24 06:32:47;;;;;;;;;56.67;40.00;;;;;2.84;82.86;101225.72;6317617;20;3638832;-46
2021/10/24 06:35:17;;;;;;;;;41.67;35.67;;;;;2.81;82.58;101232.81;6318250;20;3609650;-45
2021/10/24 06:37:48;;;;;;;;;41.67;36.33;;;;;2.70;82.81;101240.81;6316072;20;2858655;-45
2021/10/24 06:40:18;;;;;;;;;50.33;38.33;;;;;2.46;83.61;101230.31;6315666;20;3629385;-45
2021/10/24 06:42:47;;;;;;;;;56.00;42.33;;;;;3.69;82.53;101234.00;6314826;20;2856513;-45
2021/10/24 06:45:17;;;;;;;;;79.33;58.00;;;;;3.56;81.04;101250.94;6318161;20;3667978;-46
2021/10/24 06:47:50;;;;;;;;;70.33;55.33;;;;;3.33;81.72;101250.22;6280955;20;3625360;-46
2021/10/24 06:50:20;;;;;;;;;59.67;44.33;;;;;3.59;82.47;101250.91;6315621;20;2875378;-45
2021/10/24 06:52:50;;;;;;;;;46.00;37.00;;;;;5.35;77.71;101249.81;6316927;20;2875317;-45
2021/10/24 06:55:20;;;;;;;;;65.67;48.00;;;;;10.71;58.60;101261.91;6316005;20;3637752;-45
2021/10/24 06:57:53;;;;;;;;;75.00;55.33;;;;;12.80;50.94;101274.91;6315774;20;3639929;-45
2021/10/24 07:00:26;;;;;;;;;71.00;55.00;;;;;12.91;49.50;101278.00;6316304;20;3615843;-49
2021/10/24 07:02:57;;;;;;;;;67.67;54.33;;;;;6.82;63.03;101264.09;6314657;20;3631521;-45
2021/10/24 07:05:27;;;;;;;;;68.67;52.00;;;;;5.46;73.24;101270.06;6316801;20;3645061;-44
2021/10/24 07:07:56;;;;;;;;;63.67;53.00;;;;;4.93;76.40;101274.34;6281124;20;3613851;-46
2021/10/24 07:10:26;;;;;;;;;65.00;51.33;;;;;4.97;77.53;101280.50;6317296;20;3623202;-44
2021/10/24 07:12:56;;;;;;;;;59.67;48.67;;;;;4.55;78.61;101283.66;6315791;20;2856830;-44
2021/10/24 07:15:25;;;;;;;;;59.50;45.50;;;;;5.39;77.63;101278.16;6316208;20;2863893;-45
2021/10/24 07:17:54;;;;;;;;;68.33;54.00;;;;;5.83;75.49;101285.47;6285086;20;2877483;-44
2021/10/24 07:20:23;;;;;;;;;52.00;43.00;;;;;5.44;77.46;101292.28;6317517;20;2854441;-46
2021/10/24 07:22:53;;;;;;;;;39.00;33.00;;;;;5.48;76.71;101286.91;6283647;20;3620042;-44
2021/10/24 07:25:25;;;;;;;;;32.00;26.00;;;;;6.18;74.37;101289.34;6317644;20;2854518;-47
2021/10/24 07:27:54;;;;;;;;;26.50;24.00;;;;;6.21;73.62;101281.28;6313594;20;2845163;-46
2021/10/24 07:30:23;;;;;;;;;36.00;28.00;;;;;6.18;73.34;101289.34;6283089;20;2849192;-44
2021/10/24 07:32:51;;;;;;;;;21.00;18.00;;;;;6.21;74.32;101283.94;6282951;20;2820144;-45
2021/10/24 07:35:20;;;;;;;;;18.67;14.67;;;;;6.42;72.98;101293.34;6283775;20;3553343;-45
2021/10/24 07:37:47;;;;;;;;;21.00;18.00;;;;;6.54;72.55;101300.25;6278630;20;2823158;-45
2021/10/24 07:40:18;;;;;;;;;22.50;18.00;;;;;6.60;73.78;101302.78;6280441;20;2833609;-46
2021/10/24 07:42:46;;;;;;;;;16.50;15.00;;;;;6.12;73.90;101297.47;6281017;20;2819077;-45
2021/10/24 07:45:15;;;;;;;;;19.67;12.00;;;;;6.47;73.98;101296.81;6281335;20;3536733;-46
2021/10/24 07:47:45;;;;;;;;;16.67;14.67;;;;;6.84;72.77;101297.88;6310668;20;3545166;-46
2021/10/24 07:50:14;;;;;;;;;12.33;12.33;;;;;6.02;74.61;101304.72;6309303;20;2796196;-45
2021/10/24 07:52:42;;;;;;;;;16.00;14.00;;;;;6.94;73.08;101305.69;6310618;20;2800248;-46
2021/10/24 07:55:11;;;;;;;;;14.33;13.33;;;;;6.81;73.50;101299.69;6280313;20;2798668;-45
2021/10/24 07:57:40;;;;;;;;;17.80;9.80;;;;;7.52;70.79;101308.00;6336076;20;2813798;-45
2021/10/24 08:00:09;;;;;;;;;16.00;15.33;;;;;7.31;70.53;101310.22;6277732;20;2815034;-46
2021/10/24 08:02:38;;;;;;;;;15.33;12.00;;;;;7.56;70.91;101313.25;6311398;20;3542929;-48
2021/10/24 08:05:07;;;;;;;;;15.00;12.00;;;;;7.79;68.29;101310.00;6319745;20;2785768;-45
2021/10/24 08:07:44;;;;;;;;;10.50;9.00;;;;;7.63;67.76;101316.66;6283930;20;2766940;-44
2021/10/24 08:10:15;;;;;;;;;20.00;16.00;;;;;7.94;67.32;101319.47;6286437;20;2827330;-45
2021/10/24 08:12:44;;;;;;;;;15.00;15.00;;;;;7.93;67.80;101311.50;6284476;20;2810678;-45
2021/10/24 08:15:14;;;;;;;;;19.00;15.00;;;;;8.24;65.82;101306.22;6284182;20;3539814;-45
2021/10/24 08:17:42;;;;;;;;;21.50;16.00;;;;;8.67;66.11;101318.53;6316985;20;2831554;-45
2021/10/24 08:20:11;;;;;;;;;13.50;13.50;;;;;8.69;65.02;101314.88;6289443;20;2796125;-46
2021/10/24 08:22:39;;;;;;;;;21.00;17.00;;;;;8.37;65.22;101305.00;6284698;20;3559796;-49
2021/10/24 08:25:10;;;;;;;;;24.00;19.50;;;;;8.45;64.71;101308.41;6283438;20;2496072;-45
2021/10/24 08:27:38;;;;;;;;;23.00;20.50;;;;;8.66;64.64;101312.31;6277521;20;2500385;-45
2021/10/24 08:30:09;;;;;;;;;17.33;16.00;;;;;9.38;63.20;101315.56;6285577;20;3552351;-47
2021/10/24 08:32:38;;;;;;;;;15.67;12.00;;;;;9.50;62.54;101318.78;6281300;20;3529448;-47
2021/10/24 08:35:09;;;;;;;;;14.00;8.33;;;;;8.83;63.84;101327.88;6280800;20;2771215;-49
2021/10/24 08:37:39;;;;;;;;;13.40;12.00;;;;;9.41;62.38;101328.88;6339832;20;2790232;-46
2021/10/24 08:40:10;;;;;;;;;10.67;10.33;;;;;9.92;61.25;101313.84;6283825;20;2793118;-47
2021/10/24 08:42:40;;;;;;;;;10.50;10.50;;;;;10.02;60.56;101319.81;6313287;20;2787886;-46
2021/10/24 08:45:11;;;;;;;;;14.00;9.00;;;;;9.95;60.03;101316.44;6285112;20;2773188;-45
2021/10/24 08:47:42;;;;;;;;;8.00;8.00;;;;;9.58;61.39;101325.66;6293309;20;2748193;-45
2021/10/24 08:50:13;;;;;;;;;11.00;10.00;;;;;9.64;61.81;101319.25;6287392;20;2786706;-46
2021/10/24 08:52:45;;;;;;;;;19.50;13.50;;;;;10.18;61.48;101315.66;6290557;20;2801338;-45
2021/10/24 08:55:15;;;;;;;;;15.67;12.00;;;;;10.45;60.53;101323.75;6285330;20;3522101;-45
2021/10/24 08:57:47;;;;;;;;;11.50;10.00;;;;;10.40;59.98;101323.03;6321227;20;2775253;-47
2021/10/24 09:00:36;;;;;;;;;10.00;9.00;;;;;10.75;59.04;101325.34;6292333;20;2762855;-46
2021/10/24 09:03:11;;;;;;;;;2.75;2.75;;;;;10.76;58.79;101334.28;6305763;20;1811824;-47
2021/10/24 09:05:49;;;;;;;;;6.50;4.00;;;;;10.21;59.13;101331.66;6321238;20;2754539;-46
2021/10/24 09:08:20;;;;;;;;;6.00;3.00;;;;;10.39;57.99;101329.34;6290157;20;2754448;-46
2021/10/24 09:11:02;;;;;;;;;19.67;18.67;;;;;11.29;57.17;101333.22;6292169;20;3580494;-48
2021/10/24 09:13:36;;;;;;;;;4.00;3.00;;;;;11.45;56.52;101329.00;6324001;20;2745116;-48
2021/10/24 09:16:07;;;;;;;;;9.00;5.00;;;;;10.91;56.99;101319.44;6287184;20;2755469;-45
2021/10/24 09:18:44;;;;;;;;;7.00;5.50;;;;;11.37;57.20;101320.38;6294209;20;2745038;-47
2021/10/24 09:21:16;;;;;;;;;11.00;7.50;;;;;11.32;57.23;101327.72;6291225;20;2758694;-46
2021/10/24 09:24:12;;;;;;;;;10.00;9.00;;;;;11.74;56.25;101321.59;6287756;20;2763875;-47
2021/10/24 09:26:42;;;;;;;;;6.00;6.00;;;;;11.88;55.11;101321.97;6293763;20;2726379;-46
2021/10/24 09:29:16;;;;;;;;;14.40;12.00;;;;;11.71;54.55;101325.28;6310934;20;2790294;-47
2021/10/24 09:31:53;;;;;;;;;10.50;6.00;;;;;11.69;54.90;101326.28;6288499;20;2750308;-47
2021/10/24 09:34:24;;;;;;;;;7.00;4.00;;;;;11.71;53.39;101316.34;6293835;20;2743013;-47
2021/10/24 09:36:57;;;;;;;;;7.50;5.00;;;;;11.67;53.48;101320.13;6291588;20;2754428;-45
2021/10/24 09:39:37;;;;;;;;;5.00;4.00;;;;;11.26;52.43;101325.28;6289439;20;2750253;-47
2021/10/24 09:42:27;;;;;;;;;6.00;4.00;;;;;11.17;52.82;101324.69;6289255;20;2752400;-46
2021/10/24 09:45:12;;;;;;;;;11.00;10.50;;;;;11.98;50.78;101323.34;6284052;20;2784616;-46
2021/10/24 09:47:48;;;;;;;;;5.00;5.00;;;;;12.05;49.47;101324.84;6291919;20;2743077;-46
2021/10/24 09:50:50;;;;;;;;;6.00;6.00;;;;;12.55;49.33;101315.53;6290573;20;2733620;-46
2021/10/24 09:53:27;;;;;;;;;6.57;5.00;;;;;12.07;49.67;101322.09;6331210;20;3462164;-46
2021/10/24 09:56:00;;;;;;;;;4.50;4.00;;;;;11.94;49.01;101310.94;6319640;20;2750363;-45
2021/10/24 09:58:38;;;;;;;;;3.50;1.50;;;;;11.97;49.91;101318.03;6290279;20;2730534;-46
2021/10/24 10:01:14;;;;;;;;;5.43;4.86;;;;;11.52;50.97;101303.63;6331558;20;1795069;-46
2021/10/24 10:03:45;;;;;;;;;7.00;4.00;;;;;11.58;50.46;101298.00;6317197;20;2746103;-47
2021/10/24 10:06:24;;;;;;;;;6.00;6.00;;;;;11.72;50.91;101294.78;6315306;20;2745065;-45
2021/10/24 10:08:52;;;;;;;;;5.50;4.00;;;;;12.24;48.13;101299.81;6319254;20;2754921;-47
2021/10/24 10:11:35;;;;;;;;;7.00;5.00;;;;;11.95;48.68;101306.44;6286758;20;2747253;-49
2021/10/24 10:14:33;;;;;;;;;5.00;4.00;;;;;12.17;48.12;101301.06;6286974;20;2756629;-46
2021/10/24 10:17:20;;;;;;;;;4.00;4.00;;;;;12.13;49.08;101311.06;6289359;20;2750355;-48
2021/10/24 10:19:48;;;;;;;;;3.00;3.00;;;;;11.99;48.39;101305.38;6288107;20;2745196;-47
2021/10/24 10:22:36;;;;;;;;;2.00;2.00;;;;;11.79;49.39;101311.53;6286659;20;2744071;-47
2021/10/24 10:25:08;;;;;;;;;3.00;3.00;;;;;11.93;48.59;101306.53;6288698;20;2744004;-45
2021/10/24 10:27:42;;;;;;;;;5.00;3.00;;;;;12.51;47.50;101314.81;6329283;20;2739941;-45
2021/10/24 10:30:16;;;;;;;;;5.00;3.00;;;;;11.98;49.02;101315.28;6321942;20;2748168;-46
2021/10/24 10:32:53;;;;;;;;;4.00;4.00;;;;;12.26;47.75;101306.91;6289385;20;2756587;-45
2021/10/24 10:35:27;;;;;;;;;4.00;4.00;;;;;12.24;48.44;101305.22;6288749;20;2743035;-45
2021/10/24 10:38:03;;;;;;;;;3.00;3.00;;;;;12.65;47.95;101316.03;6302148;20;1809744;-48
2021/10/24 10:40:39;;;;;;;;;3.50;3.00;;;;;12.15;47.75;101302.94;6321962;20;2742961;-47
2021/10/24 10:43:20;;;;;;;;;6.50;4.50;;;;;12.43;47.70;101308.03;6288589;20;2752393;-46
2021/10/24 10:45:52;;;;;;;;;4.75;4.75;;;;;12.58;45.78;101307.31;6306390;20;1813272;-48
2021/10/24 10:48:46;;;;;;;;;10.20;6.00;;;;;12.50;47.47;101302.28;6343112;20;2760655;-47
2021/10/24 10:51:25;;;;;;;;;4.00;2.50;;;;;12.41;46.70;101305.38;6289994;20;2752321;-45
2021/10/24 10:54:02;;;;;;;;;3.00;3.00;;;;;12.41;48.32;101309.91;6285632;20;2740893;-45
2021/10/24 10:56:53;;;;;;;;;4.50;3.00;;;;;12.77;45.98;101301.13;6289293;20;2741931;-45
2021/10/24 10:59:37;;;;;;;;;7.00;3.50;;;;;12.41;47.58;101293.72;6283838;20;2756489;-46
2021/10/24 11:02:27;;;;;;;;;6.00;3.50;;;;;12.75;45.93;101298.50;6287265;20;2746089;-46
2021/10/24 11:05:03;;;;;;;;;5.00;3.00;;;;;12.74;46.68;101297.66;6288483;20;2741954;-46
2021/10/24 11:07:38;;;;;;;;;4.00;2.50;;;;;12.59;45.40;101298.31;6288562;20;2740864;-48
2021/10/24 11:10:17;;;;;;;;;6.00;3.00;;;;;12.65;45.69;101302.56;6286289;20;2733618;-47
2021/10/24 11:12:49;;;;;;;;;4.00;4.00;;;;;12.33;45.34;101296.75;6326061;20;2479515;-48
2021/10/24 11:15:28;;;;;;;;;2.00;2.00;;;;;12.43;45.75;101300.81;6320286;20;2744576;-51
2021/10/24 11:17:59;;;;;;;;;4.50;3.00;;;;;12.72;44.44;101295.97;6289126;20;2742036;-46
2021/10/24 11:20:41;;;;;;;;;3.00;3.00;;;;;13.05;44.39;101289.97;6291273;20;2730601;-48
2021/10/24 11:23:15;;;;;;;;;6.00;3.00;;;;;12.51;44.03;101285.19;6287967;20;2746116;-46